Time;durP1;ratioP1;P1;durP2;ratioP2;P2;SDS_P1;SDS_P2;PMS_P1;PMS_P2;Temp;Humidity;BMP_temperature;BMP_pressure;BME280_temperature;BME280_humidity;BME280_pressure;Samples;Min_cycle;Max_cycle;Signal;HPM_P1;HPM_P2
2023/11/03 00:00:04;;;;;;;5.88;1.10;;;;;;;;;;483863;28;944;-68
2023/11/03 00:00:19;;;;;;;5.10;1.10;;;;;;;;;;483491;28;1201;-69
2023/11/03 00:00:35;;;;;;;4.77;1.17;;;;;;;;;;482987;28;1303;-68
2023/11/03 00:00:50;;;;;;;4.35;1.20;;;;;;;;;;483569;28;1033;-69
2023/11/03 00:01:07;;;;;;;6.05;1.23;;;;;;;;;;485725;28;1029;-69
2023/11/03 00:01:22;;;;;;;5.65;1.10;;;;;;;;;;485724;28;1066;-68
2023/11/03 00:01:44;;;;;;;5.00;1.10;;;;;;;;;;486597;28;1158;-68
2023/11/03 00:01:59;;;;;;;5.88;1.20;;;;;;;;;;486856;28;1338;-68
2023/11/03 00:02:15;;;;;;;5.45;1.30;;;;;;;;;;486077;28;1130;-68
2023/11/03 00:02:31;;;;;;;5.38;1.38;;;;;;;;;;486887;28;1226;-68
2023/11/03 00:02:47;;;;;;;5.95;1.40;;;;;;;;;;486830;28;1061;-69
2023/11/03 00:03:05;;;;;;;5.63;1.20;;;;;;;;;;486553;28;1206;-70
2023/11/03 00:03:21;;;;;;;5.50;1.30;;;;;;;;;;486331;28;1156;-69
2023/11/03 00:03:37;;;;;;;5.03;1.20;;;;;;;;;;486686;28;1160;-68
2023/11/03 00:03:53;;;;;;;5.73;1.27;;;;;;;;;;486007;28;1095;-68
2023/11/03 00:04:09;;;;;;;4.72;1.17;;;;;;;;;;486396;28;1129;-69
2023/11/03 00:04:24;;;;;;;4.88;1.20;;;;;;;;;;486530;28;1115;-69
2023/11/03 00:04:41;;;;;;;5.53;1.30;;;;;;;;;;485866;28;1220;-69
2023/11/03 00:05:01;;;;;;;4.93;1.20;;;;;;;;;;486548;28;941;-68
2023/11/03 00:05:17;;;;;;;6.07;1.30;;;;;;;;;;486853;28;957;-68
2023/11/03 00:05:32;;;;;;;5.68;1.20;;;;;;;;;;486791;28;1041;-68
2023/11/03 00:05:48;;;;;;;5.55;1.30;;;;;;;;;;486464;28;947;-68
2023/11/03 00:06:03;;;;;;;7.20;1.60;;;;;;;;;;486619;28;999;-68
2023/11/03 00:06:19;;;;;;;6.85;1.50;;;;;;;;;;486695;28;967;-69
2023/11/03 00:06:43;;;;;;;6.73;1.23;;;;;;;;;;487574;28;999;-67
2023/11/03 00:06:58;;;;;;;5.03;1.23;;;;;;;;;;486612;28;1351;-68
2023/11/03 00:07:14;;;;;;;5.03;1.10;;;;;;;;;;488260;28;1229;-68
2023/11/03 00:07:30;;;;;;;4.78;1.10;;;;;;;;;;488181;28;1087;-68
2023/11/03 00:07:46;;;;;;;5.25;1.23;;;;;;;;;;489521;28;1033;-68
2023/11/03 00:08:03;;;;;;;5.60;1.20;;;;;;;;;;488725;28;901;-68
2023/11/03 00:08:18;;;;;;;4.65;1.20;;;;;;;;;;488873;28;1410;-68
2023/11/03 00:08:34;;;;;;;4.03;1.25;;;;;;;;;;488424;28;1016;-68
2023/11/03 00:08:50;;;;;;;4.67;1.20;;;;;;;;;;489070;28;1038;-69
2023/11/03 00:09:07;;;;;;;5.70;1.30;;;;;;;;;;485602;28;1281;-68
2023/11/03 00:09:23;;;;;;;6.53;1.40;;;;;;;;;;484126;28;1130;-70
2023/11/03 00:09:39;;;;;;;5.53;1.30;;;;;;;;;;486793;28;1182;-69
2023/11/03 00:09:55;;;;;;;3.72;1.20;;;;;;;;;;485097;28;985;-69
2023/11/03 00:10:11;;;;;;;5.50;1.30;;;;;;;;;;485814;28;1197;-68
2023/11/03 00:10:27;;;;;;;5.80;1.33;;;;;;;;;;487352;28;1175;-69
2023/11/03 00:10:42;;;;;;;6.28;1.35;;;;;;;;;;486828;28;1995;-68
2023/11/03 00:11:00;;;;;;;7.03;1.30;;;;;;;;;;487406;28;992;-68
2023/11/03 00:11:15;;;;;;;6.45;1.23;;;;;;;;;;487424;28;957;-68
2023/11/03 00:11:31;;;;;;;5.20;1.23;;;;;;;;;;485531;28;1767;-69
2023/11/03 00:11:48;;;;;;;4.37;1.20;;;;;;;;;;486130;28;981;-69
2023/11/03 00:12:06;;;;;;;5.35;1.13;;;;;;;;;;484157;28;1717;-69
2023/11/03 00:12:21;;;;;;;6.07;1.25;;;;;;;;;;485655;28;1053;-69
2023/11/03 00:12:38;;;;;;;5.17;1.27;;;;;;;;;;485573;28;1085;-69
2023/11/03 00:12:53;;;;;;;3.92;1.20;;;;;;;;;;486424;28;1092;-68
2023/11/03 00:13:09;;;;;;;4.40;1.30;;;;;;;;;;486572;28;1198;-69
2023/11/03 00:13:24;;;;;;;4.43;1.30;;;;;;;;;;486701;28;1030;-69
2023/11/03 00:13:40;;;;;;;4.30;1.08;;;;;;;;;;486698;28;929;-69
2023/11/03 00:13:55;;;;;;;4.73;1.20;;;;;;;;;;486857;28;1015;-69
2023/11/03 00:14:11;;;;;;;5.55;1.30;;;;;;;;;;487518;28;976;-69
2023/11/03 00:14:27;;;;;;;5.53;1.50;;;;;;;;;;488007;28;1455;-68
2023/11/03 00:14:43;;;;;;;5.05;1.30;;;;;;;;;;486953;28;1446;-69
2023/11/03 00:14:59;;;;;;;4.88;1.10;;;;;;;;;;487230;28;1053;-68
2023/11/03 00:15:14;;;;;;;4.47;1.10;;;;;;;;;;486638;28;1181;-68
2023/11/03 00:15:30;;;;;;;6.28;1.17;;;;;;;;;;487187;28;921;-69
2023/11/03 00:15:46;;;;;;;5.78;1.23;;;;;;;;;;484656;28;1480;-68
2023/11/03 00:16:02;;;;;;;5.10;1.30;;;;;;;;;;486320;28;1419;-69
2023/11/03 00:16:17;;;;;;;5.22;1.30;;;;;;;;;;486345;28;1143;-68
2023/11/03 00:16:33;;;;;;;5.07;1.20;;;;;;;;;;487258;28;1013;-68
2023/11/03 00:16:50;;;;;;;5.07;1.20;;;;;;;;;;488115;28;1213;-69
2023/11/03 00:17:06;;;;;;;4.47;1.10;;;;;;;;;;488549;28;977;-68
2023/11/03 00:17:22;;;;;;;6.10;1.13;;;;;;;;;;487736;28;1271;-68
2023/11/03 00:17:38;;;;;;;5.17;1.00;;;;;;;;;;485374;28;1295;-69
2023/11/03 00:17:53;;;;;;;4.25;1.00;;;;;;;;;;485905;28;1231;-68
2023/11/03 00:18:09;;;;;;;5.05;1.05;;;;;;;;;;485175;28;894;-68
2023/11/03 00:18:25;;;;;;;4.87;1.07;;;;;;;;;;486296;28;1198;-69
2023/11/03 00:18:41;;;;;;;4.57;1.15;;;;;;;;;;485584;28;1232;-68
2023/11/03 00:19:00;;;;;;;3.58;1.02;;;;;;;;;;485132;28;1151;-68
2023/11/03 00:19:15;;;;;;;4.47;1.08;;;;;;;;;;486192;28;961;-69
2023/11/03 00:19:31;;;;;;;5.25;1.20;;;;;;;;;;485963;28;1106;-68
2023/11/03 00:19:46;;;;;;;4.40;1.27;;;;;;;;;;487687;28;1056;-68
2023/11/03 00:20:03;;;;;;;5.90;1.25;;;;;;;;;;487518;28;1053;-68
2023/11/03 00:20:19;;;;;;;6.20;1.20;;;;;;;;;;486411;28;1285;-68
2023/11/03 00:20:35;;;;;;;4.60;1.20;;;;;;;;;;485196;28;1292;-68
2023/11/03 00:20:51;;;;;;;4.90;1.23;;;;;;;;;;485260;28;1155;-68
2023/11/03 00:21:06;;;;;;;5.82;1.25;;;;;;;;;;484369;28;1196;-68
2023/11/03 00:21:22;;;;;;;5.20;1.20;;;;;;;;;;484606;28;984;-68
2023/11/03 00:21:37;;;;;;;5.10;1.20;;;;;;;;;;486069;28;1174;-68
2023/11/03 00:21:53;;;;;;;4.65;1.15;;;;;;;;;;486828;28;1064;-69
2023/11/03 00:22:08;;;;;;;4.13;1.10;;;;;;;;;;486208;28;1273;-69
2023/11/03 00:22:28;;;;;;;3.92;1.05;;;;;;;;;;486847;28;1290;-68
2023/11/03 00:22:43;;;;;;;4.15;1.20;;;;;;;;;;488131;28;995;-68
2023/11/03 00:23:00;;;;;;;4.28;1.20;;;;;;;;;;488183;28;1127;-69
2023/11/03 00:23:15;;;;;;;3.50;1.10;;;;;;;;;;487327;28;1368;-68
2023/11/03 00:23:31;;;;;;;4.50;1.20;;;;;;;;;;487075;28;1096;-69
2023/11/03 00:23:47;;;;;;;5.03;1.20;;;;;;;;;;485498;28;1116;-69
2023/11/03 00:24:04;;;;;;;4.77;1.10;;;;;;;;;;484514;28;1219;-68
2023/11/03 00:24:19;;;;;;;4.55;1.10;;;;;;;;;;485331;28;1294;-70
2023/11/03 00:24:35;;;;;;;4.10;1.13;;;;;;;;;;484725;28;961;-68
2023/11/03 00:24:50;;;;;;;4.63;1.13;;;;;;;;;;483757;28;1315;-68
2023/11/03 00:25:11;;;;;;;5.00;1.20;;;;;;;;;;484261;28;1125;-68
2023/11/03 00:25:26;;;;;;;4.55;1.23;;;;;;;;;;486738;28;1395;-68
2023/11/03 00:25:42;;;;;;;4.00;1.17;;;;;;;;;;486527;28;937;-69
2023/11/03 00:25:58;;;;;;;3.83;1.00;;;;;;;;;;487399;28;1050;-68
2023/11/03 00:26:14;;;;;;;3.95;0.98;;;;;;;;;;490440;28;1000;-70
2023/11/03 00:26:29;;;;;;;4.13;1.00;;;;;;;;;;489816;28;1080;-68
2023/11/03 00:26:45;;;;;;;4.47;1.20;;;;;;;;;;487795;28;1076;-68
2023/11/03 00:27:01;;;;;;;4.97;1.30;;;;;;;;;;488314;28;1167;-69
2023/11/03 00:27:16;;;;;;;4.30;1.20;;;;;;;;;;488378;28;1314;-69
2023/11/03 00:27:32;;;;;;;4.13;1.20;;;;;;;;;;486487;28;1190;-68
2023/11/03 00:27:47;;;;;;;5.05;1.27;;;;;;;;;;484725;28;1397;-69
2023/11/03 00:28:03;;;;;;;5.57;1.23;;;;;;;;;;484831;28;985;-68
2023/11/03 00:28:18;;;;;;;4.72;1.10;;;;;;;;;;481899;28;1261;-69
2023/11/03 00:28:34;;;;;;;4.10;1.10;;;;;;;;;;480679;28;1586;-68
2023/11/03 00:28:49;;;;;;;4.35;1.10;;;;;;;;;;483806;28;1015;-68
2023/11/03 00:29:07;;;;;;;4.43;1.13;;;;;;;;;;484923;28;1045;-68
2023/11/03 00:29:24;;;;;;;4.28;1.20;;;;;;;;;;486670;28;1471;-68
2023/11/03 00:29:41;;;;;;;4.05;1.10;;;;;;;;;;485991;28;1403;-68
2023/11/03 00:29:57;;;;;;;4.07;1.13;;;;;;;;;;485545;28;1108;-69
2023/11/03 00:30:13;;;;;;;3.55;1.02;;;;;;;;;;487360;28;1129;-68
2023/11/03 00:30:29;;;;;;;2.97;0.80;;;;;;;;;;485098;28;1025;-69
2023/11/03 00:30:44;;;;;;;5.57;1.03;;;;;;;;;;483820;28;2015;-68
2023/11/03 00:31:00;;;;;;;5.82;1.00;;;;;;;;;;484361;28;1131;-69
2023/11/03 00:31:16;;;;;;;4.63;1.17;;;;;;;;;;484550;28;1001;-68
2023/11/03 00:31:32;;;;;;;5.95;1.40;;;;;;;;;;485953;28;1045;-69
2023/11/03 00:31:47;;;;;;;5.07;1.30;;;;;;;;;;485825;28;1155;-69
2023/11/03 00:32:03;;;;;;;3.53;1.02;;;;;;;;;;485469;28;1077;-69
2023/11/03 00:32:19;;;;;;;4.60;1.05;;;;;;;;;;485922;28;1100;-68
2023/11/03 00:32:35;;;;;;;5.47;1.20;;;;;;;;;;486669;28;977;-68
2023/11/03 00:32:50;;;;;;;4.93;1.10;;;;;;;;;;486638;28;951;-68
2023/11/03 00:33:06;;;;;;;3.50;1.07;;;;;;;;;;486323;28;1517;-69
2023/11/03 00:33:21;;;;;;;4.67;1.10;;;;;;;;;;486755;28;1180;-68
2023/11/03 00:33:37;;;;;;;5.55;1.13;;;;;;;;;;486288;28;897;-68
2023/11/03 00:33:52;;;;;;;4.65;1.00;;;;;;;;;;486394;28;980;-67
2023/11/03 00:34:09;;;;;;;4.23;0.90;;;;;;;;;;486317;28;953;-69
2023/11/03 00:34:24;;;;;;;4.15;1.02;;;;;;;;;;487024;28;1071;-68
2023/11/03 00:34:40;;;;;;;5.63;1.30;;;;;;;;;;486575;28;1199;-69
2023/11/03 00:34:55;;;;;;;5.22;1.23;;;;;;;;;;484642;28;1218;-69
2023/11/03 00:35:11;;;;;;;3.93;1.10;;;;;;;;;;485158;28;1546;-69
2023/11/03 00:35:26;;;;;;;4.10;1.00;;;;;;;;;;486451;28;1110;-68
2023/11/03 00:35:43;;;;;;;4.33;1.10;;;;;;;;;;487015;28;1095;-69
2023/11/03 00:36:03;;;;;;;5.32;1.30;;;;;;;;;;484057;28;1285;-68
2023/11/03 00:36:19;;;;;;;4.82;1.17;;;;;;;;;;484086;28;1004;-68
2023/11/03 00:36:38;;;;;;;4.68;1.17;;;;;;;;;;483941;28;1576;-68
2023/11/03 00:36:53;;;;;;;4.30;1.10;;;;;;;;;;484701;28;1448;-68
2023/11/03 00:37:09;;;;;;;4.23;1.10;;;;;;;;;;484760;28;1017;-68
2023/11/03 00:37:25;;;;;;;3.70;1.10;;;;;;;;;;484660;28;1049;-69
2023/11/03 00:37:40;;;;;;;4.75;1.20;;;;;;;;;;482607;28;1259;-69
2023/11/03 00:37:56;;;;;;;5.37;1.20;;;;;;;;;;483723;28;988;-68
2023/11/03 00:38:13;;;;;;;5.28;1.15;;;;;;;;;;485044;28;1390;-68
2023/11/03 00:38:28;;;;;;;4.10;1.10;;;;;;;;;;485178;28;1096;-68
2023/11/03 00:38:44;;;;;;;3.93;1.00;;;;;;;;;;486274;28;1283;-68
2023/11/03 00:39:01;;;;;;;4.45;1.08;;;;;;;;;;486511;28;906;-70
2023/11/03 00:39:18;;;;;;;4.43;1.17;;;;;;;;;;485942;28;1098;-68
2023/11/03 00:39:34;;;;;;;5.32;1.20;;;;;;;;;;486687;28;1289;-69
2023/11/03 00:39:50;;;;;;;5.03;1.20;;;;;;;;;;487307;28;917;-68
2023/11/03 00:40:11;;;;;;;4.65;1.05;;;;;;;;;;487657;28;957;-68
2023/11/03 00:40:27;;;;;;;5.07;1.17;;;;;;;;;;486483;28;1064;-68
2023/11/03 00:40:42;;;;;;;4.72;0.93;;;;;;;;;;486647;28;948;-68
2023/11/03 00:40:58;;;;;;;4.37;1.00;;;;;;;;;;486333;28;1013;-68
2023/11/03 00:41:17;;;;;;;4.70;1.00;;;;;;;;;;487177;28;967;-68
2023/11/03 00:41:33;;;;;;;5.07;1.10;;;;;;;;;;485029;28;1348;-68
2023/11/03 00:41:52;;;;;;;4.07;1.13;;;;;;;;;;483636;28;1608;-68
2023/11/03 00:42:07;;;;;;;4.47;1.10;;;;;;;;;;484770;28;1121;-68
2023/11/03 00:42:23;;;;;;;3.20;0.97;;;;;;;;;;484748;28;919;-69
2023/11/03 00:42:39;;;;;;;4.47;1.02;;;;;;;;;;484554;28;1038;-68
2023/11/03 00:42:59;;;;;;;4.18;1.00;;;;;;;;;;483991;28;1158;-68
2023/11/03 00:43:15;;;;;;;4.65;1.10;;;;;;;;;;484558;28;1273;-69
2023/11/03 00:43:30;;;;;;;4.27;1.00;;;;;;;;;;485580;28;1061;-68
2023/11/03 00:43:46;;;;;;;3.90;1.00;;;;;;;;;;486580;28;1915;-69
2023/11/03 00:44:02;;;;;;;4.95;1.20;;;;;;;;;;486057;28;1229;-68
2023/11/03 00:44:18;;;;;;;4.63;1.17;;;;;;;;;;486133;28;1420;-69
2023/11/03 00:44:34;;;;;;;3.70;1.30;;;;;;;;;;486860;28;1120;-68
2023/11/03 00:44:49;;;;;;;4.10;1.30;;;;;;;;;;486864;28;992;-69
2023/11/03 00:45:06;;;;;;;4.45;1.20;;;;;;;;;;486775;28;1120;-69
2023/11/03 00:45:21;;;;;;;5.43;1.30;;;;;;;;;;487121;28;924;-68
2023/11/03 00:45:37;;;;;;;5.07;1.30;;;;;;;;;;485403;28;1293;-68
2023/11/03 00:45:52;;;;;;;4.03;1.15;;;;;;;;;;486112;28;1458;-68
2023/11/03 00:46:08;;;;;;;4.60;1.10;;;;;;;;;;486193;28;1403;-68
2023/11/03 00:46:24;;;;;;;4.72;1.20;;;;;;;;;;485315;28;990;-68
2023/11/03 00:46:39;;;;;;;5.40;1.00;;;;;;;;;;484754;28;1187;-69
2023/11/03 00:46:55;;;;;;;5.57;1.03;;;;;;;;;;484799;28;1070;-69
2023/11/03 00:47:10;;;;;;;4.50;1.25;;;;;;;;;;484912;28;1108;-69
2023/11/03 00:47:26;;;;;;;5.40;1.20;;;;;;;;;;483831;28;1298;-68
2023/11/03 00:47:41;;;;;;;5.32;1.00;;;;;;;;;;484538;28;1398;-69
2023/11/03 00:47:56;;;;;;;4.97;1.00;;;;;;;;;;484470;28;1088;-69
2023/11/03 00:48:13;;;;;;;5.30;1.08;;;;;;;;;;484817;28;1203;-69
2023/11/03 00:48:28;;;;;;;4.78;1.10;;;;;;;;;;484940;28;1105;-68
2023/11/03 00:48:44;;;;;;;4.13;1.10;;;;;;;;;;484488;28;1078;-69
2023/11/03 00:48:59;;;;;;;4.68;1.10;;;;;;;;;;485879;28;1451;-68
2023/11/03 00:49:15;;;;;;;5.47;1.20;;;;;;;;;;486977;28;925;-69
2023/11/03 00:49:30;;;;;;;4.95;1.20;;;;;;;;;;488339;28;1108;-68
2023/11/03 00:49:46;;;;;;;4.53;1.10;;;;;;;;;;488248;28;1313;-69
2023/11/03 00:50:02;;;;;;;4.05;1.15;;;;;;;;;;489213;28;961;-68
2023/11/03 00:50:17;;;;;;;4.22;1.10;;;;;;;;;;491575;28;1068;-68
2023/11/03 00:50:33;;;;;;;5.97;1.33;;;;;;;;;;489882;28;919;-69
2023/11/03 00:50:48;;;;;;;5.43;1.30;;;;;;;;;;487451;28;2001;-69
2023/11/03 00:51:04;;;;;;;4.17;0.90;;;;;;;;;;487739;28;1109;-69
2023/11/03 00:51:19;;;;;;;4.43;0.88;;;;;;;;;;485470;28;1308;-68
2023/11/03 00:51:36;;;;;;;4.63;1.00;;;;;;;;;;483954;28;1213;-68
2023/11/03 00:51:52;;;;;;;4.60;1.10;;;;;;;;;;484220;28;1081;-68
2023/11/03 00:52:07;;;;;;;4.07;1.20;;;;;;;;;;484631;28;1328;-68
2023/11/03 00:52:25;;;;;;;4.43;1.10;;;;;;;;;;484863;28;1351;-69
2023/11/03 00:52:41;;;;;;;4.15;1.10;;;;;;;;;;485770;28;1080;-68
2023/11/03 00:52:56;;;;;;;3.95;1.00;;;;;;;;;;485710;28;964;-68
2023/11/03 00:53:11;;;;;;;4.53;1.10;;;;;;;;;;486061;28;1196;-69
2023/11/03 00:53:27;;;;;;;5.00;1.20;;;;;;;;;;486886;28;1032;-68
2023/11/03 00:53:45;;;;;;;5.50;1.23;;;;;;;;;;485527;28;1160;-68
2023/11/03 00:54:04;;;;;;;5.28;1.20;;;;;;;;;;487609;28;1052;-68
2023/11/03 00:54:20;;;;;;;4.45;0.98;;;;;;;;;;486515;28;1149;-68
2023/11/03 00:54:35;;;;;;;4.30;1.10;;;;;;;;;;486903;28;1141;-69
2023/11/03 00:54:53;;;;;;;4.18;1.17;;;;;;;;;;486957;28;1347;-68
2023/11/03 00:55:08;;;;;;;4.05;0.98;;;;;;;;;;488243;28;1381;-69
2023/11/03 00:55:25;;;;;;;3.92;1.00;;;;;;;;;;486465;28;1214;-68
2023/11/03 00:55:41;;;;;;;3.67;1.10;;;;;;;;;;486970;28;1219;-69
2023/11/03 00:55:56;;;;;;;5.57;1.20;;;;;;;;;;487043;28;1056;-68
2023/11/03 00:56:13;;;;;;;5.88;1.20;;;;;;;;;;486626;28;1319;-68
2023/11/03 00:56:33;;;;;;;4.32;1.02;;;;;;;;;;486488;28;1021;-69
2023/11/03 00:56:48;;;;;;;4.40;0.98;;;;;;;;;;486305;28;1129;-70
2023/11/03 00:57:05;;;;;;;4.95;1.10;;;;;;;;;;484838;28;1017;-69
2023/11/03 00:57:20;;;;;;;4.47;1.10;;;;;;;;;;484636;28;1573;-69
2023/11/03 00:57:37;;;;;;;3.97;1.10;;;;;;;;;;485765;28;1319;-68
2023/11/03 00:57:53;;;;;;;3.92;1.00;;;;;;;;;;486840;28;1660;-68
2023/11/03 00:58:09;;;;;;;4.40;1.00;;;;;;;;;;487243;28;1297;-70
2023/11/03 00:58:25;;;;;;;5.43;1.10;;;;;;;;;;486097;28;1058;-68
2023/11/03 00:58:41;;;;;;;5.88;1.00;;;;;;;;;;487672;28;1367;-69
2023/11/03 00:58:56;;;;;;;6.10;1.10;;;;;;;;;;486204;28;1112;-68
2023/11/03 00:59:12;;;;;;;6.35;1.20;;;;;;;;;;486846;28;1421;-69
2023/11/03 00:59:28;;;;;;;5.35;1.10;;;;;;;;;;487414;28;1088;-68
2023/11/03 00:59:44;;;;;;;4.27;0.93;;;;;;;;;;486353;28;1089;-69
2023/11/03 01:00:00;;;;;;;3.55;0.90;;;;;;;;;;487274;28;1188;-69
2023/11/03 01:00:16;;;;;;;2.88;0.93;;;;;;;;;;484983;28;1057;-69
2023/11/03 01:00:35;;;;;;;2.50;0.93;;;;;;;;;;486089;28;914;-69
2023/11/03 01:00:53;;;;;;;4.38;0.88;;;;;;;;;;486883;28;1059;-69
2023/11/03 01:01:13;;;;;;;4.97;0.90;;;;;;;;;;486459;28;1054;-69
2023/11/03 01:01:29;;;;;;;4.03;1.20;;;;;;;;;;487116;28;1076;-69
2023/11/03 01:01:45;;;;;;;4.50;1.15;;;;;;;;;;486939;28;1076;-68
2023/11/03 01:02:04;;;;;;;3.90;1.02;;;;;;;;;;486464;28;1446;-71
2023/11/03 01:02:19;;;;;;;3.42;0.98;;;;;;;;;;485606;28;1589;-69
2023/11/03 01:02:35;;;;;;;3.33;0.90;;;;;;;;;;487367;28;1405;-68
2023/11/03 01:02:50;;;;;;;3.37;0.90;;;;;;;;;;483794;28;1107;-68
2023/11/03 01:03:05;;;;;;;4.43;1.10;;;;;;;;;;484587;28;1116;-67
2023/11/03 01:03:23;;;;;;;7.03;1.08;;;;;;;;;;486483;28;1102;-68
2023/11/03 01:03:39;;;;;;;7.82;0.90;;;;;;;;;;486609;28;1065;-69
2023/11/03 01:03:55;;;;;;;4.13;1.05;;;;;;;;;;486990;28;1067;-68
2023/11/03 01:04:11;;;;;;;4.97;1.13;;;;;;;;;;488343;28;1234;-68
2023/11/03 01:04:27;;;;;;;5.47;1.00;;;;;;;;;;489173;28;953;-70
2023/11/03 01:04:42;;;;;;;5.43;1.00;;;;;;;;;;487833;28;935;-68
2023/11/03 01:04:58;;;;;;;4.60;1.10;;;;;;;;;;488567;28;1095;-69
2023/11/03 01:05:17;;;;;;;4.00;1.10;;;;;;;;;;487304;28;1020;-69
2023/11/03 01:05:32;;;;;;;4.53;0.93;;;;;;;;;;483895;28;1290;-68
2023/11/03 01:05:48;;;;;;;5.03;1.05;;;;;;;;;;485026;28;1148;-68
2023/11/03 01:06:05;;;;;;;4.13;1.02;;;;;;;;;;485329;28;991;-70
2023/11/03 01:06:22;;;;;;;2.97;0.90;;;;;;;;;;486039;28;994;-68
2023/11/03 01:06:39;;;;;;;4.47;1.10;;;;;;;;;;486630;28;1045;-70
2023/11/03 01:06:55;;;;;;;4.28;0.98;;;;;;;;;;486810;28;1088;-68
2023/11/03 01:07:10;;;;;;;4.20;1.00;;;;;;;;;;486234;28;933;-69
2023/11/03 01:07:26;;;;;;;4.43;1.05;;;;;;;;;;485966;28;1164;-69
2023/11/03 01:07:42;;;;;;;4.13;0.95;;;;;;;;;;486607;28;1028;-69
2023/11/03 01:07:57;;;;;;;2.80;0.65;;;;;;;;;;486918;28;971;-69
2023/11/03 01:08:13;;;;;;;2.97;0.77;;;;;;;;;;486845;28;1273;-68
2023/11/03 01:08:28;;;;;;;4.30;0.90;;;;;;;;;;488292;28;1464;-68
2023/11/03 01:08:44;;;;;;;3.90;0.90;;;;;;;;;;487736;28;1116;-68
2023/11/03 01:08:59;;;;;;;3.17;0.90;;;;;;;;;;488852;28;1088;-69
2023/11/03 01:09:15;;;;;;;4.57;1.05;;;;;;;;;;489154;28;997;-68
2023/11/03 01:09:30;;;;;;;5.90;1.17;;;;;;;;;;486043;28;1222;-68
2023/11/03 01:09:46;;;;;;;5.13;1.00;;;;;;;;;;486948;28;921;-68
2023/11/03 01:10:01;;;;;;;4.30;0.90;;;;;;;;;;487296;28;1190;-69
2023/11/03 01:10:17;;;;;;;3.63;0.85;;;;;;;;;;487090;28;1033;-68
2023/11/03 01:10:32;;;;;;;3.80;0.90;;;;;;;;;;484814;28;1376;-68
2023/11/03 01:10:49;;;;;;;3.67;0.88;;;;;;;;;;487474;28;1946;-68
2023/11/03 01:11:08;;;;;;;4.50;0.90;;;;;;;;;;486963;28;1108;-69
2023/11/03 01:11:26;;;;;;;5.70;1.23;;;;;;;;;;486663;28;981;-68
2023/11/03 01:11:41;;;;;;;3.78;1.05;;;;;;;;;;486032;28;1271;-69
2023/11/03 01:11:57;;;;;;;3.55;0.93;;;;;;;;;;484513;28;1124;-68
2023/11/03 01:12:12;;;;;;;3.63;0.97;;;;;;;;;;484416;28;993;-68
2023/11/03 01:12:27;;;;;;;3.58;0.90;;;;;;;;;;485193;28;1199;-68
2023/11/03 01:12:45;;;;;;;3.38;0.82;;;;;;;;;;487044;28;968;-68
2023/11/03 01:13:01;;;;;;;3.00;0.80;;;;;;;;;;486409;28;964;-69
2023/11/03 01:13:21;;;;;;;4.00;1.00;;;;;;;;;;487325;28;1461;-68
2023/11/03 01:13:41;;;;;;;4.22;0.98;;;;;;;;;;486258;28;1155;-68
2023/11/03 01:13:56;;;;;;;3.58;0.93;;;;;;;;;;486493;28;1646;-69
2023/11/03 01:14:12;;;;;;;3.33;0.90;;;;;;;;;;485927;28;1590;-68
2023/11/03 01:14:30;;;;;;;4.20;0.90;;;;;;;;;;487442;28;1204;-68
2023/11/03 01:14:45;;;;;;;4.15;0.98;;;;;;;;;;484556;28;1133;-68
2023/11/03 01:15:05;;;;;;;3.87;1.00;;;;;;;;;;484508;28;987;-69
2023/11/03 01:15:21;;;;;;;4.85;1.00;;;;;;;;;;486736;28;1365;-68
2023/11/03 01:15:37;;;;;;;4.57;1.00;;;;;;;;;;486229;28;1069;-69
2023/11/03 01:15:52;;;;;;;4.28;1.08;;;;;;;;;;486826;28;1132;-68
2023/11/03 01:16:08;;;;;;;4.65;1.10;;;;;;;;;;486485;28;1108;-70
2023/11/03 01:16:25;;;;;;;5.00;1.25;;;;;;;;;;487117;28;1060;-68
2023/11/03 01:16:41;;;;;;;4.78;1.02;;;;;;;;;;486598;28;1120;-69
2023/11/03 01:16:57;;;;;;;4.85;1.00;;;;;;;;;;484935;28;1105;-68
2023/11/03 01:17:16;;;;;;;4.68;1.00;;;;;;;;;;486798;28;1093;-69
2023/11/03 01:17:32;;;;;;;3.75;1.00;;;;;;;;;;484213;28;1353;-68
2023/11/03 01:17:50;;;;;;;3.08;0.90;;;;;;;;;;483593;28;1121;-68
2023/11/03 01:18:06;;;;;;;3.05;0.80;;;;;;;;;;484088;28;1156;-68
2023/11/03 01:18:22;;;;;;;3.58;0.85;;;;;;;;;;484427;28;945;-69
2023/11/03 01:18:42;;;;;;;3.50;0.90;;;;;;;;;;484804;28;1128;-68
2023/11/03 01:19:00;;;;;;;4.45;0.93;;;;;;;;;;486790;28;1063;-68
2023/11/03 01:19:18;;;;;;;4.93;0.88;;;;;;;;;;486400;28;979;-68
2023/11/03 01:19:34;;;;;;;3.42;0.90;;;;;;;;;;486352;28;1328;-68
2023/11/03 01:19:50;;;;;;;4.25;1.10;;;;;;;;;;487057;28;1019;-68
2023/11/03 01:20:12;;;;;;;4.07;1.08;;;;;;;;;;486531;28;1096;-69
2023/11/03 01:20:28;;;;;;;3.42;0.90;;;;;;;;;;487162;28;1133;-69
2023/11/03 01:20:43;;;;;;;4.60;1.10;;;;;;;;;;485707;28;1069;-68
2023/11/03 01:20:59;;;;;;;4.70;0.90;;;;;;;;;;485341;28;925;-69
2023/11/03 01:21:15;;;;;;;4.23;0.90;;;;;;;;;;485519;28;1064;-69
2023/11/03 01:21:39;;;;;;;3.65;0.98;;;;;;;;;;486761;28;1423;-69
2023/11/03 01:21:54;;;;;;;3.25;1.15;;;;;;;;;;486860;28;1107;-68
2023/11/03 01:22:10;;;;;;;3.30;1.03;;;;;;;;;;484228;28;1199;-69
2023/11/03 01:22:25;;;;;;;4.10;0.90;;;;;;;;;;484990;28;1394;-68
2023/11/03 01:22:41;;;;;;;4.53;1.10;;;;;;;;;;485173;28;1101;-68
2023/11/03 01:22:57;;;;;;;4.50;1.10;;;;;;;;;;484041;28;1048;-69
2023/11/03 01:23:13;;;;;;;5.10;1.02;;;;;;;;;;484357;28;1061;-68
2023/11/03 01:23:28;;;;;;;5.22;1.10;;;;;;;;;;483854;28;1032;-68
2023/11/03 01:23:49;;;;;;;4.70;1.10;;;;;;;;;;484677;28;1190;-69
2023/11/03 01:24:06;;;;;;;3.90;0.95;;;;;;;;;;486203;28;937;-69
2023/11/03 01:24:24;;;;;;;4.63;1.05;;;;;;;;;;488325;28;1011;-68
2023/11/03 01:24:41;;;;;;;3.95;1.00;;;;;;;;;;488241;28;1107;-68
2023/11/03 01:25:00;;;;;;;3.67;1.00;;;;;;;;;;488221;28;1205;-68
2023/11/03 01:25:18;;;;;;;4.50;0.90;;;;;;;;;;488030;28;1146;-68
2023/11/03 01:25:34;;;;;;;5.38;0.98;;;;;;;;;;486266;28;1281;-68
2023/11/03 01:25:50;;;;;;;5.85;1.15;;;;;;;;;;487989;28;1253;-69
2023/11/03 01:26:07;;;;;;;4.53;1.00;;;;;;;;;;488522;28;1435;-68
2023/11/03 01:26:25;;;;;;;2.63;0.80;;;;;;;;;;486544;28;1318;-68
2023/11/03 01:26:41;;;;;;;4.03;1.10;;;;;;;;;;486600;28;1237;-68
2023/11/03 01:26:59;;;;;;;3.80;1.10;;;;;;;;;;486524;28;1111;-68
2023/11/03 01:27:14;;;;;;;4.97;1.13;;;;;;;;;;486190;28;1125;-68
2023/11/03 01:27:30;;;;;;;5.70;1.20;;;;;;;;;;486511;28;974;-68
2023/11/03 01:27:45;;;;;;;4.00;1.02;;;;;;;;;;485377;28;1131;-68
2023/11/03 01:28:01;;;;;;;4.33;0.90;;;;;;;;;;485074;28;1262;-68
2023/11/03 01:28:17;;;;;;;3.78;0.80;;;;;;;;;;486988;28;1101;-68
2023/11/03 01:28:32;;;;;;;2.75;0.80;;;;;;;;;;488820;28;981;-69
2023/11/03 01:28:47;;;;;;;3.40;1.00;;;;;;;;;;485857;28;1347;-68
2023/11/03 01:29:04;;;;;;;3.37;1.00;;;;;;;;;;486615;28;1076;-69
2023/11/03 01:29:20;;;;;;;3.65;1.00;;;;;;;;;;486358;28;1084;-68
2023/11/03 01:29:35;;;;;;;3.53;1.00;;;;;;;;;;486153;28;988;-68
2023/11/03 01:29:51;;;;;;;4.13;1.00;;;;;;;;;;486204;28;957;-67
2023/11/03 01:30:09;;;;;;;3.85;1.00;;;;;;;;;;484194;28;1226;-68
2023/11/03 01:30:27;;;;;;;2.75;0.88;;;;;;;;;;486492;28;941;-68
2023/11/03 01:30:44;;;;;;;3.00;1.00;;;;;;;;;;486987;28;1144;-68
2023/11/03 01:30:59;;;;;;;3.25;1.00;;;;;;;;;;486801;28;1991;-68
2023/11/03 01:31:15;;;;;;;3.17;0.93;;;;;;;;;;486375;28;1128;-68
2023/11/03 01:31:31;;;;;;;3.75;0.98;;;;;;;;;;486548;28;1101;-68
2023/11/03 01:31:47;;;;;;;4.13;1.00;;;;;;;;;;486935;28;1052;-68
2023/11/03 01:32:02;;;;;;;3.35;0.93;;;;;;;;;;488655;28;1435;-68
2023/11/03 01:32:18;;;;;;;3.87;0.90;;;;;;;;;;488605;28;1088;-68
2023/11/03 01:32:34;;;;;;;3.90;0.90;;;;;;;;;;488871;28;1107;-68
2023/11/03 01:32:55;;;;;;;3.78;0.80;;;;;;;;;;489055;28;1577;-69
2023/11/03 01:33:10;;;;;;;4.45;0.80;;;;;;;;;;489860;28;1095;-67
2023/11/03 01:33:26;;;;;;;4.20;0.80;;;;;;;;;;490191;28;913;-68
2023/11/03 01:33:41;;;;;;;3.80;0.90;;;;;;;;;;490055;28;1063;-68
2023/11/03 01:33:57;;;;;;;3.30;0.90;;;;;;;;;;486703;28;1405;-68
2023/11/03 01:34:12;;;;;;;3.33;0.90;;;;;;;;;;486333;28;1156;-68
2023/11/03 01:34:28;;;;;;;2.83;0.80;;;;;;;;;;488394;28;1172;-69
2023/11/03 01:34:43;;;;;;;3.78;0.90;;;;;;;;;;488006;28;1400;-68
2023/11/03 01:34:58;;;;;;;4.53;1.00;;;;;;;;;;488695;28;1033;-68
2023/11/03 01:35:14;;;;;;;4.22;1.00;;;;;;;;;;488102;28;1000;-68
2023/11/03 01:35:30;;;;;;;3.83;0.90;;;;;;;;;;488544;28;1095;-69
2023/11/03 01:35:45;;;;;;;3.00;0.80;;;;;;;;;;488350;28;1046;-68
2023/11/03 01:36:04;;;;;;;3.28;0.80;;;;;;;;;;488178;28;1266;-68
2023/11/03 01:36:19;;;;;;;3.65;0.85;;;;;;;;;;487679;28;1244;-68
2023/11/03 01:36:35;;;;;;;3.43;0.87;;;;;;;;;;486426;28;1132;-69
2023/11/03 01:36:50;;;;;;;3.42;0.90;;;;;;;;;;486686;28;1402;-69
2023/11/03 01:37:06;;;;;;;3.05;0.90;;;;;;;;;;486706;28;989;-68
2023/11/03 01:37:21;;;;;;;3.27;0.93;;;;;;;;;;487070;28;976;-68
2023/11/03 01:37:37;;;;;;;3.45;0.98;;;;;;;;;;486372;28;1258;-68
2023/11/03 01:37:56;;;;;;;3.07;0.90;;;;;;;;;;486709;28;1029;-68
2023/11/03 01:38:11;;;;;;;3.08;0.90;;;;;;;;;;483967;28;1302;-67
2023/11/03 01:38:27;;;;;;;2.93;0.90;;;;;;;;;;484938;28;926;-68
2023/11/03 01:38:43;;;;;;;2.83;0.85;;;;;;;;;;484615;28;1195;-69
2023/11/03 01:38:59;;;;;;;2.67;0.80;;;;;;;;;;484327;28;957;-68
2023/11/03 01:39:15;;;;;;;4.13;1.00;;;;;;;;;;484680;28;1230;-68
2023/11/03 01:39:31;;;;;;;4.82;1.00;;;;;;;;;;486073;28;1005;-68
2023/11/03 01:39:46;;;;;;;3.55;0.90;;;;;;;;;;486092;28;895;-68
2023/11/03 01:40:08;;;;;;;3.27;0.97;;;;;;;;;;486302;28;1147;-68
2023/11/03 01:40:24;;;;;;;4.55;0.90;;;;;;;;;;486468;28;1151;-68
2023/11/03 01:40:39;;;;;;;3.23;0.87;;;;;;;;;;485135;28;1231;-68